createdAt,value
2018-12-12T00:01:01.051Z,560.9
2018-12-12T00:02:03.173Z,560.7
2018-12-12T00:03:05.600Z,561.1
2018-12-12T00:04:08.032Z,560.8
2018-12-12T00:05:10.186Z,560.9
2018-12-12T00:06:12.609Z,561
2018-12-12T00:07:14.779Z,561.2
2018-12-12T00:08:16.941Z,561.1
2018-12-12T00:09:19.092Z,561.3
2018-12-12T00:10:21.515Z,561.3
2018-12-12T00:11:23.939Z,561.8
2018-12-12T00:12:26.081Z,561.7
2018-12-12T00:13:28.214Z,561.9
2018-12-12T00:14:30.646Z,561.9
2018-12-12T00:15:32.789Z,561.7
2018-12-12T00:16:34.421Z,562.2
2018-12-12T00:17:36.574Z,562.1
2018-12-12T00:18:38.997Z,561.7
2018-12-12T00:19:40.877Z,561.8
2018-12-12T00:20:42.763Z,561.8
2018-12-12T00:21:44.903Z,562
2018-12-12T00:22:47.341Z,562.3
2018-12-12T00:23:49.783Z,561.8
2018-12-12T00:24:51.935Z,562.1
2018-12-12T00:25:54.094Z,562
2018-12-12T00:26:56.239Z,561.8
2018-12-12T00:27:58.369Z,561.7
2018-12-12T00:29:00.519Z,561.7
2018-12-12T00:30:02.652Z,561.9
2018-12-12T00:31:05.073Z,561.9
2018-12-12T00:32:07.223Z,562.2
2018-12-12T00:33:09.094Z,562.4
2018-12-12T00:34:11.241Z,562.2
2018-12-12T00:35:13.667Z,562.6
2018-12-12T00:36:15.821Z,562.7
2018-12-12T00:37:17.971Z,562.6
2018-12-12T00:38:19.823Z,562.6
2018-12-12T00:39:21.984Z,562.5
2018-12-12T00:40:24.407Z,562.8
2018-12-12T00:41:26.549Z,562.5
2018-12-12T00:42:29.003Z,562.4
2018-12-12T00:43:31.428Z,562.3
2018-12-12T00:44:33.323Z,562.3
2018-12-12T00:45:35.447Z,562.2
2018-12-12T00:46:37.603Z,562.4
2018-12-12T00:47:40.032Z,562.5
2018-12-12T00:48:42.224Z,562.4
2018-12-12T00:49:44.362Z,562.4
2018-12-12T00:50:46.789Z,562.4
2018-12-12T00:51:49.212Z,562.2
2018-12-12T00:52:51.640Z,562.5
2018-12-12T00:53:54.061Z,561.6
2018-12-12T00:54:56.477Z,561.7
2018-12-12T00:55:58.919Z,561.5
2018-12-12T00:57:01.343Z,561.6
2018-12-12T00:58:03.504Z,561.8
2018-12-12T00:59:05.973Z,561.3
2018-12-12T01:00:08.410Z,561
2018-12-12T01:01:10.836Z,561.2
2018-12-12T01:02:13.258Z,561.3
2018-12-12T01:03:15.699Z,561.2
2018-12-12T01:04:17.861Z,561.1
2018-12-12T01:05:20.288Z,560.6
2018-12-12T01:06:22.709Z,560.5
2018-12-12T01:07:25.132Z,560.6
2018-12-12T01:08:27.279Z,560.4
2018-12-12T01:09:29.411Z,559.8
2018-12-12T01:10:31.843Z,560.3
2018-12-12T01:11:33.993Z,560.3
2018-12-12T01:12:36.431Z,560.8
2018-12-12T01:13:38.583Z,560.6
2018-12-12T01:14:41.006Z,560.9
2018-12-12T01:15:43.426Z,560.5
2018-12-12T01:16:45.853Z,560.4
2018-12-12T01:17:48.280Z,560.5
2018-12-12T01:18:50.767Z,560.6
2018-12-12T01:19:52.913Z,560.3
2018-12-12T01:20:55.063Z,560.5
2018-12-12T01:21:57.489Z,560.1
2018-12-12T01:22:59.617Z,560.1
2018-12-12T01:24:01.773Z,559.9
2018-12-12T01:25:04.235Z,559.4
2018-12-12T01:26:06.659Z,559.5
2018-12-12T01:27:09.091Z,559.1
2018-12-12T01:28:11.238Z,559.2
2018-12-12T01:29:13.439Z,558.8
2018-12-12T01:30:15.597Z,559
2018-12-12T01:31:18.023Z,558.6
2018-12-12T01:32:19.637Z,559
2018-12-12T01:33:21.501Z,558.9
2018-12-12T01:34:23.923Z,558.9
2018-12-12T01:35:26.074Z,559.1
2018-12-12T01:36:28.228Z,559.1
2018-12-12T01:37:30.647Z,559
2018-12-12T01:38:32.799Z,559.1
2018-12-12T01:39:34.679Z,559.3
2018-12-12T01:40:37.111Z,559.4
2018-12-12T01:41:39.552Z,559.6
2018-12-12T01:42:41.405Z,559.3
2018-12-12T01:43:43.577Z,559.4
2018-12-12T01:44:46.001Z,559.4
2018-12-12T01:45:48.423Z,559.3
2018-12-12T01:46:50.850Z,559.1
2018-12-12T01:47:53.274Z,559.2
2018-12-12T01:48:55.692Z,559.6
2018-12-12T01:49:58.121Z,559.2
2018-12-12T01:51:00.560Z,559.2
2018-12-12T01:52:02.988Z,559.4
2018-12-12T01:53:05.421Z,559.6
2018-12-12T01:54:07.302Z,559.6
2018-12-12T01:55:09.174Z,559.4
2018-12-12T01:56:11.603Z,559.7
2018-12-12T01:57:14.041Z,559.6
2018-12-12T01:58:16.470Z,559.8
2018-12-12T01:59:18.894Z,559.9
2018-12-12T02:00:21.318Z,559.8
2018-12-12T02:01:23.460Z,560.1
2018-12-12T02:02:25.876Z,560
2018-12-12T02:03:27.808Z,560.1
2018-12-12T02:04:30.232Z,559.4
2018-12-12T02:05:32.656Z,559.7
2018-12-12T02:06:35.093Z,559.4
2018-12-12T02:07:37.522Z,559.3
2018-12-12T02:08:39.952Z,559.2
2018-12-12T02:09:42.090Z,559.4
2018-12-12T02:10:44.516Z,559.2
2018-12-12T02:11:46.931Z,559.5
2018-12-12T02:12:49.074Z,559.5
2018-12-12T02:13:51.224Z,559.8
2018-12-12T02:14:53.651Z,559.6
2018-12-12T02:15:56.076Z,559.8
2018-12-12T02:16:58.218Z,560
2018-12-12T02:18:00.634Z,559.8
2018-12-12T02:19:03.061Z,559.6
2018-12-12T02:20:05.485Z,559.7
2018-12-12T02:21:07.361Z,559.5
2018-12-12T02:22:09.798Z,560
2018-12-12T02:23:12.230Z,560.1
2018-12-12T02:24:14.670Z,560.4
2018-12-12T02:25:16.830Z,559.9
2018-12-12T02:26:18.985Z,560.2
2018-12-12T02:27:21.398Z,560.3
2018-12-12T02:28:23.544Z,560.3
2018-12-12T02:29:25.961Z,560.4
2018-12-12T02:30:28.100Z,560.8
2018-12-12T02:31:30.535Z,560.6
2018-12-12T02:32:32.963Z,560.7
2018-12-12T02:33:35.386Z,560.8
2018-12-12T02:34:37.810Z,560.7
2018-12-12T02:35:40.237Z,560.9
2018-12-12T02:36:42.378Z,561
2018-12-12T02:37:44.262Z,561.2
2018-12-12T02:38:46.427Z,561.3
2018-12-12T02:39:48.636Z,561.8
2018-12-12T02:40:51.064Z,561.8
2018-12-12T02:41:53.493Z,561.7
2018-12-12T02:42:55.659Z,561.5
2018-12-12T02:43:58.103Z,562
2018-12-12T02:45:00.525Z,562
2018-12-12T02:46:02.942Z,562.2
2018-12-12T02:47:04.535Z,562.3
2018-12-12T02:48:06.963Z,562.3
2018-12-12T02:49:09.114Z,562.4
2018-12-12T02:50:11.552Z,562.3
2018-12-12T02:51:13.992Z,562.4
2018-12-12T02:52:16.129Z,562.5
2018-12-12T02:53:18.563Z,562.4
2018-12-12T02:54:20.980Z,562.9
2018-12-12T02:55:23.410Z,562.8
2018-12-12T02:56:25.300Z,563.1
2018-12-12T02:57:27.443Z,562.9
2018-12-12T02:58:29.603Z,562.7
2018-12-12T02:59:32.023Z,562.7
2018-12-12T03:00:34.183Z,562.7
2018-12-12T03:01:36.620Z,562.4
2018-12-12T03:02:39.051Z,562.6
2018-12-12T03:03:41.213Z,562.2
2018-12-12T03:04:43.371Z,562.6
2018-12-12T03:05:45.805Z,562.2
2018-12-12T03:06:48.236Z,562.6
2018-12-12T03:07:50.652Z,562.6
2018-12-12T03:08:52.810Z,562.4
2018-12-12T03:09:54.951Z,562.7
2018-12-12T03:10:57.383Z,562.7
2018-12-12T03:11:59.814Z,562.6
2018-12-12T03:13:02.255Z,562.8
2018-12-12T03:14:04.671Z,562.6
2018-12-12T03:15:06.838Z,562.8
2018-12-12T03:16:09.263Z,562.7
2018-12-12T03:17:11.690Z,562.4
2018-12-12T03:18:14.120Z,562.9
2018-12-12T03:19:16.277Z,562.5
2018-12-12T03:20:18.760Z,562.5
2018-12-12T03:21:21.200Z,562.1
2018-12-12T03:22:23.618Z,562.2
2018-12-12T03:23:26.060Z,562.2
2018-12-12T03:24:28.489Z,562
2018-12-12T03:25:30.935Z,561.5
2018-12-12T03:26:33.072Z,561.6
2018-12-12T03:27:35.273Z,561.2
2018-12-12T03:28:37.693Z,561.4
2018-12-12T03:29:39.860Z,561.7
2018-12-12T03:30:42.294Z,561.7
2018-12-12T03:31:44.723Z,561.8
2018-12-12T03:32:46.600Z,561.7
2018-12-12T03:33:49.029Z,561.7
2018-12-12T03:34:50.888Z,561.6
2018-12-12T03:35:52.774Z,561.5
2018-12-12T03:36:54.944Z,561.8
2018-12-12T03:37:56.830Z,562
2018-12-12T03:38:58.992Z,562
2018-12-12T03:40:00.858Z,561.6
2018-12-12T03:41:02.743Z,561.7
2018-12-12T03:42:04.609Z,561.6
2018-12-12T03:43:06.753Z,561.9
2018-12-12T03:44:08.912Z,562.1
2018-12-12T03:45:11.067Z,561.7
2018-12-12T03:46:13.223Z,562.1
2018-12-12T03:47:15.127Z,562.2
2018-12-12T03:48:17.267Z,561.9
2018-12-12T03:49:19.693Z,562.4
2018-12-12T03:50:21.851Z,562.2
2018-12-12T03:51:24.024Z,562.2
2018-12-12T03:52:26.442Z,562.7
2018-12-12T03:53:28.397Z,562.8
2018-12-12T03:54:30.829Z,562.9
2018-12-12T03:55:33.253Z,563
2018-12-12T03:56:35.413Z,562.6
2018-12-12T03:57:37.828Z,562.7
2018-12-12T03:58:39.966Z,562.5
2018-12-12T03:59:41.864Z,562.7
2018-12-12T04:00:44.095Z,562.7
2018-12-12T04:01:46.593Z,562.8
2018-12-12T04:02:48.754Z,562.7
2018-12-12T04:03:50.898Z,562.5
2018-12-12T04:04:53.052Z,562.6
2018-12-12T04:05:55.241Z,562.6
2018-12-12T04:06:57.664Z,562.4
2018-12-12T04:07:59.816Z,562.6
2018-12-12T04:09:02.260Z,562.7
2018-12-12T04:10:04.679Z,562.8
2018-12-12T04:11:07.123Z,562.7
2018-12-12T04:12:09.543Z,562.6
2018-12-12T04:13:11.690Z,562.5
2018-12-12T04:14:13.843Z,562.6
2018-12-12T04:15:16.074Z,562.8
2018-12-12T04:16:18.499Z,562.4
2018-12-12T04:17:20.944Z,562.5
2018-12-12T04:18:23.375Z,562.4
2018-12-12T04:19:25.800Z,562.9
2018-12-12T04:20:27.951Z,562.9
2018-12-12T04:21:30.370Z,563
2018-12-12T04:22:32.830Z,562.9
2018-12-12T04:23:35.253Z,563
2018-12-12T04:24:37.682Z,563
2018-12-12T04:25:40.103Z,563.2
2018-12-12T04:26:42.524Z,563.4
2018-12-12T04:27:44.972Z,562.9
2018-12-12T04:28:47.113Z,562.5
2018-12-12T04:29:49.542Z,562.7
2018-12-12T04:30:51.690Z,562.6
2018-12-12T04:31:54.113Z,562.8
2018-12-12T04:32:56.253Z,562.7
2018-12-12T04:33:58.410Z,562.7
2018-12-12T04:35:00.832Z,562.7
2018-12-12T04:36:02.991Z,562.8
2018-12-12T04:37:05.423Z,563
2018-12-12T04:38:07.850Z,562.7
2018-12-12T04:39:10.007Z,562.7
2018-12-12T04:40:12.442Z,563.1
2018-12-12T04:41:14.577Z,563.1
2018-12-12T04:42:17.006Z,563
2018-12-12T04:43:19.442Z,562.7
2018-12-12T04:44:21.895Z,563
2018-12-12T04:45:24.328Z,563.3
2018-12-12T04:46:26.750Z,563.1
2018-12-12T04:47:28.349Z,563.2
2018-12-12T04:48:30.513Z,563.2
2018-12-12T04:49:32.976Z,563.2
2018-12-12T04:50:35.142Z,563.2
2018-12-12T04:51:37.327Z,563.4
2018-12-12T04:52:39.486Z,563.1
2018-12-12T04:53:41.917Z,563.3
2018-12-12T04:54:44.400Z,562.8
2018-12-12T04:55:46.538Z,562.9
2018-12-12T04:56:48.417Z,562.7
2018-12-12T04:57:50.850Z,562.5
2018-12-12T04:58:53.000Z,562.6
2018-12-12T04:59:55.418Z,562.8
2018-12-12T05:00:57.851Z,562
2018-12-12T05:02:00.291Z,562.4
2018-12-12T05:03:02.730Z,562.4
2018-12-12T05:04:04.892Z,562.2
2018-12-12T05:05:07.323Z,562.4
2018-12-12T05:06:09.741Z,562.3
2018-12-12T05:07:12.183Z,562
2018-12-12T05:08:14.608Z,561.9
2018-12-12T05:09:16.492Z,562
2018-12-12T05:10:18.928Z,561.9
2018-12-12T05:11:21.061Z,562.4
2018-12-12T05:12:23.493Z,562.1
2018-12-12T05:13:25.640Z,562.2
2018-12-12T05:14:28.078Z,561.7
2018-12-12T05:15:30.500Z,561.5
2018-12-12T05:16:32.378Z,562.1
2018-12-12T05:17:34.801Z,561.9
2018-12-12T05:18:37.271Z,562
2018-12-12T05:19:39.702Z,561.8
2018-12-12T05:20:41.852Z,562.1
2018-12-12T05:21:44.002Z,562.1
2018-12-12T05:22:46.433Z,561.8
2018-12-12T05:23:48.632Z,561.8
2018-12-12T05:24:50.788Z,562.1
2018-12-12T05:25:53.210Z,561.7
2018-12-12T05:26:55.354Z,561.8
2018-12-12T05:27:57.240Z,562
2018-12-12T05:28:59.110Z,561.6
2018-12-12T05:30:01.258Z,561.9
2018-12-12T05:31:03.692Z,561.8
2018-12-12T05:32:06.138Z,562
2018-12-12T05:33:08.570Z,561.5
2018-12-12T05:34:10.733Z,561.7
2018-12-12T05:35:13.228Z,561.4
2018-12-12T05:36:15.692Z,562
2018-12-12T05:37:18.160Z,561.4
2018-12-12T05:38:20.323Z,561.6
2018-12-12T05:39:22.477Z,561.9
2018-12-12T05:40:24.892Z,561.6
2018-12-12T05:41:27.051Z,561.7
2018-12-12T05:42:29.478Z,561.5
2018-12-12T05:43:31.902Z,561.6
2018-12-12T05:44:34.332Z,561.4
2018-12-12T05:45:36.760Z,561.7
2018-12-12T05:47:44.161Z,561.5
2018-12-12T05:48:46.595Z,561.3
2018-12-12T05:49:49.021Z,561.2
2018-12-12T05:50:51.443Z,561.6
2018-12-12T05:51:53.882Z,561.6
2018-12-12T05:52:56.010Z,561.6
2018-12-12T05:53:58.451Z,561.3
2018-12-12T05:55:00.882Z,561.8
2018-12-12T05:56:04.619Z,561.5
2018-12-12T05:57:06.770Z,561.7
2018-12-12T05:58:09.202Z,561.7
2018-12-12T05:59:11.620Z,561.7
2018-12-12T06:00:14.068Z,561.6
2018-12-12T06:01:16.501Z,561.6
2018-12-12T06:02:18.932Z,561.9
2018-12-12T06:03:21.349Z,561.5
2018-12-12T06:04:23.517Z,561.8
2018-12-12T06:05:25.659Z,562
2018-12-12T06:06:28.092Z,562
2018-12-12T06:07:30.259Z,561.9
2018-12-12T06:08:32.413Z,561.8
2018-12-12T06:09:34.850Z,561.6
2018-12-12T06:10:37.270Z,561.7
2018-12-12T06:11:40.864Z,561.4
2018-12-12T06:12:43.016Z,561.5
2018-12-12T06:13:45.440Z,561.3
2018-12-12T06:14:47.857Z,561
2018-12-12T06:15:50.320Z,561.1
2018-12-12T06:16:52.490Z,561.1
2018-12-12T06:17:54.923Z,561.2
2018-12-12T06:18:57.365Z,561
2018-12-12T06:19:59.628Z,561.1
2018-12-12T06:21:02.129Z,560.9
2018-12-12T06:22:04.603Z,560.9
2018-12-12T06:23:06.562Z,560.8
2018-12-12T06:24:08.713Z,560.7
2018-12-12T06:25:11.149Z,560.5
2018-12-12T06:26:13.575Z,560.8
2018-12-12T06:27:16.002Z,560.1
2018-12-12T06:28:17.617Z,560.2
2018-12-12T06:29:20.043Z,560.2
2018-12-12T06:30:21.627Z,560.2
2018-12-12T06:31:24.065Z,560.1
2018-12-12T06:32:26.482Z,560.2
2018-12-12T06:33:28.911Z,560.3
2018-12-12T06:34:31.333Z,560.2
2018-12-12T06:35:33.529Z,560
2018-12-12T06:36:35.691Z,560.3
2018-12-12T06:37:38.121Z,560.1
2018-12-12T06:38:40.274Z,560
2018-12-12T06:39:42.713Z,560.1
2018-12-12T06:40:44.596Z,560.2
2018-12-12T06:41:46.755Z,560.1
2018-12-12T06:42:49.173Z,560.2
2018-12-12T06:43:51.338Z,560
2018-12-12T06:44:53.499Z,560.1
2018-12-12T06:45:55.923Z,560.3
2018-12-12T06:46:58.342Z,560.1
2018-12-12T06:48:00.485Z,560.3
2018-12-12T06:49:02.912Z,560.3
2018-12-12T06:50:05.332Z,560.4
2018-12-12T06:51:07.777Z,560.2
2018-12-12T06:52:09.900Z,559.8
2018-12-12T06:53:12.325Z,559.9
2018-12-12T06:54:14.463Z,559.4
2018-12-12T06:55:16.610Z,559.8
2018-12-12T06:56:19.749Z,559.8
2018-12-12T06:57:21.827Z,559.8
2018-12-12T06:58:24.242Z,559.7
2018-12-12T06:59:26.669Z,559.6
2018-12-12T07:00:29.086Z,559.7
2018-12-12T07:01:31.515Z,559.4
2018-12-12T07:02:33.929Z,559.2
2018-12-12T07:03:36.059Z,559.7
2018-12-12T07:04:38.211Z,559.4
2018-12-12T07:05:40.642Z,559.3
2018-12-12T07:06:42.503Z,559.7
2018-12-12T07:07:44.928Z,559.2
2018-12-12T07:08:47.059Z,559.4
2018-12-12T07:09:49.493Z,559.3
2018-12-12T07:10:51.922Z,558.8
2018-12-12T07:11:54.338Z,559
2018-12-12T07:12:56.763Z,559
2018-12-12T07:13:58.923Z,559.3
2018-12-12T07:15:01.092Z,559.1
2018-12-12T07:16:03.500Z,558.9
2018-12-12T07:17:05.397Z,558.9
2018-12-12T07:18:07.557Z,559.3
2018-12-12T07:19:09.709Z,559.1
2018-12-12T07:20:11.862Z,559.2
2018-12-12T07:21:14.342Z,558.8
2018-12-12T07:22:16.762Z,559
2018-12-12T07:23:18.927Z,559.1
2018-12-12T07:24:21.059Z,559
2018-12-12T07:25:23.575Z,558.7
2018-12-12T07:26:25.474Z,559.1
2018-12-12T07:27:27.903Z,558.5
2018-12-12T07:28:30.322Z,558.8
2018-12-12T07:29:32.933Z,558.4
2018-12-12T07:30:35.084Z,558.6
2018-12-12T07:31:37.249Z,558.9
2018-12-12T07:32:39.402Z,559.1
2018-12-12T07:33:42.429Z,558.8
2018-12-12T07:34:44.607Z,558.7
2018-12-12T07:35:47.033Z,558.5
2018-12-12T07:36:49.187Z,558.7
2018-12-12T07:37:51.611Z,559.1
2018-12-12T07:38:54.043Z,558.7
2018-12-12T07:39:57.613Z,558.9
2018-12-12T07:41:00.040Z,558.9
2018-12-12T07:42:02.461Z,558.9
2018-12-12T07:43:04.334Z,559
2018-12-12T07:44:06.493Z,558.8
2018-12-12T07:45:08.913Z,559.2
2018-12-12T07:46:11.360Z,559
2018-12-12T07:47:14.976Z,558.9
2018-12-12T07:48:17.399Z,559
2018-12-12T07:49:19.608Z,558.8
2018-12-12T07:50:21.523Z,559.4
2018-12-12T07:51:23.975Z,558.9
2018-12-12T07:52:26.127Z,559.2
2018-12-12T07:53:28.560Z,559.1
2018-12-12T07:54:45.651Z,559.4
2018-12-12T07:55:49.161Z,559.4
2018-12-12T07:56:51.329Z,559.1
2018-12-12T07:57:53.753Z,559.1
2018-12-12T07:58:56.183Z,559.4
2018-12-12T07:59:58.331Z,559
2018-12-12T08:01:00.475Z,559
2018-12-12T08:02:02.052Z,559.3
2018-12-12T08:04:09.194Z,559
2018-12-12T08:05:11.335Z,559.4
2018-12-12T08:06:13.479Z,559.4
2018-12-12T08:07:15.909Z,559.2
2018-12-12T08:08:18.074Z,559.3
2018-12-12T08:09:19.963Z,559.5
2018-12-12T08:10:22.403Z,559
2018-12-12T08:11:24.827Z,559
2018-12-12T08:12:27.248Z,559.1
2018-12-12T08:13:29.671Z,559.1
2018-12-12T08:14:31.262Z,559.2
2018-12-12T08:15:34.901Z,559.4
2018-12-12T08:16:37.057Z,559.5
2018-12-12T08:17:39.479Z,559.3
2018-12-12T08:18:41.632Z,559.4
2018-12-12T08:19:44.053Z,559
2018-12-12T08:20:46.202Z,558.9
2018-12-12T08:21:48.623Z,558.8
2018-12-12T08:22:50.514Z,559.2
2018-12-12T08:23:52.937Z,559.1
2018-12-12T08:24:55.364Z,558.7
2018-12-12T08:25:57.794Z,559.3
2018-12-12T08:27:00.224Z,559
2018-12-12T08:28:02.667Z,558.9
2018-12-12T08:29:04.832Z,558.8
2018-12-12T08:30:07.261Z,558.6
2018-12-12T08:31:09.421Z,558.5
2018-12-12T08:32:11.584Z,558.7
2018-12-12T08:33:15.280Z,558.7
2018-12-12T08:34:17.144Z,558.7
2018-12-12T08:35:19.296Z,558.5
2018-12-12T08:36:21.465Z,558.6
2018-12-12T08:37:23.887Z,558.3
2018-12-12T08:38:26.032Z,558.4
2018-12-12T08:39:28.451Z,558.1
2018-12-12T08:40:30.873Z,558.2
2018-12-12T08:41:33.034Z,558.5
2018-12-12T08:42:35.443Z,558.8
2018-12-12T08:43:37.865Z,558.5
2018-12-12T08:44:40.291Z,558.6
2018-12-12T08:45:42.713Z,558.8
2018-12-12T08:46:45.130Z,558.4
2018-12-12T08:47:47.562Z,558.2
2018-12-12T08:48:49.988Z,558.1
2018-12-12T08:49:52.403Z,558.1
2018-12-12T08:50:54.827Z,558.1
2018-12-12T08:51:57.260Z,558.1
2018-12-12T08:52:59.674Z,558.2
2018-12-12T08:54:02.094Z,558
2018-12-12T08:55:04.238Z,558.2
2018-12-12T08:56:06.388Z,558.2
2018-12-12T08:57:08.579Z,557.9
2018-12-12T08:58:11.056Z,558.2
2018-12-12T08:59:13.247Z,558.1
2018-12-12T09:00:15.671Z,558
2018-12-12T09:01:17.831Z,557.7
2018-12-12T09:02:19.992Z,558.1
2018-12-12T09:03:22.423Z,557.8
2018-12-12T09:04:24.564Z,557.8
2018-12-12T09:05:27.033Z,557.8
2018-12-12T09:06:29.173Z,557.9
2018-12-12T09:07:31.601Z,557.7
2018-12-12T09:08:34.023Z,557.6
2018-12-12T09:09:36.447Z,557.6
2018-12-12T09:10:38.585Z,557.9
2018-12-12T09:11:41.010Z,557.5
2018-12-12T09:12:43.430Z,557.4
2018-12-12T09:13:45.859Z,557.4
2018-12-12T09:14:48.013Z,557.9
2018-12-12T09:15:50.470Z,557.7
2018-12-12T09:16:52.888Z,557.6
2018-12-12T09:17:55.039Z,557.4
2018-12-12T09:18:57.470Z,557.5
2018-12-12T09:19:59.902Z,557.8
2018-12-12T09:21:02.335Z,557.6
2018-12-12T09:22:04.762Z,557.6
2018-12-12T09:23:07.185Z,557.1
2018-12-12T09:24:09.620Z,557.1
2018-12-12T09:25:12.042Z,557.3
2018-12-12T09:26:14.186Z,557.6
2018-12-12T09:27:16.622Z,557.6
2018-12-12T09:28:19.064Z,557.2
2018-12-12T09:29:21.230Z,557.2
2018-12-12T09:30:23.369Z,558
2018-12-12T09:31:25.537Z,557.6
2018-12-12T09:32:27.974Z,557.8
2018-12-12T09:33:30.410Z,557.9
2018-12-12T09:34:32.579Z,558
2018-12-12T09:35:35.019Z,557.8
2018-12-12T09:36:37.450Z,557.8
2018-12-12T09:37:39.870Z,557.4
2018-12-12T09:38:42.288Z,557.7
2018-12-12T09:39:44.722Z,557.6
2018-12-12T09:40:46.868Z,557.7
2018-12-12T09:41:48.748Z,557.7
2018-12-12T09:42:50.920Z,558
2018-12-12T09:43:53.334Z,557.9
2018-12-12T09:44:55.753Z,558.2
2018-12-12T09:45:57.656Z,558.5
2018-12-12T09:47:00.083Z,558.6
2018-12-12T09:48:02.235Z,558.2
2018-12-12T09:49:04.093Z,558.4
2018-12-12T09:50:06.510Z,558.5
2018-12-12T09:51:09.224Z,558.6
2018-12-12T09:52:11.644Z,558.3
2018-12-12T09:53:14.074Z,558.7
2018-12-12T09:54:16.223Z,558.7
2018-12-12T09:55:18.391Z,558.6
2018-12-12T09:56:20.812Z,559
2018-12-12T09:57:22.952Z,558.4
2018-12-12T09:58:25.392Z,558.8
2018-12-12T09:59:27.803Z,558.7
2018-12-12T10:00:30.223Z,559
2018-12-12T10:01:32.661Z,558.6
2018-12-12T10:02:35.115Z,558.2
2018-12-12T10:03:37.543Z,558.8
2018-12-12T10:04:39.972Z,558.3
2018-12-12T10:05:42.398Z,558.8
2018-12-12T10:06:44.843Z,558.4
2018-12-12T10:07:47.274Z,559
2018-12-12T10:08:49.431Z,558.8
2018-12-12T10:09:51.869Z,559
2018-12-12T10:10:54.302Z,559.2
2018-12-12T10:11:56.742Z,558.9
2018-12-12T10:12:58.600Z,559.1
2018-12-12T10:14:01.014Z,559.3
2018-12-12T10:15:03.159Z,559
2018-12-12T10:16:05.581Z,559.2
2018-12-12T10:17:07.773Z,559.3
2018-12-12T10:18:10.187Z,559.6
2018-12-12T10:19:12.383Z,559.1
2018-12-12T10:20:14.812Z,559.2
2018-12-12T10:21:17.243Z,559
2018-12-12T10:22:19.664Z,559.2
2018-12-12T10:23:22.090Z,558.9
2018-12-12T10:24:24.529Z,559.2
2018-12-12T10:25:26.972Z,559.6
2018-12-12T10:26:29.402Z,559.4
2018-12-12T10:27:31.894Z,559.4
2018-12-12T10:28:34.321Z,559.6
2018-12-12T10:29:36.237Z,559.5
2018-12-12T10:30:38.420Z,559.3
2018-12-12T10:31:40.843Z,559.5
2018-12-12T10:32:43.271Z,559.6
2018-12-12T10:33:45.715Z,560
2018-12-12T10:34:47.883Z,560.2
2018-12-12T10:35:50.306Z,560.1
2018-12-12T10:36:52.721Z,560.1
2018-12-12T10:37:54.863Z,560.1
2018-12-12T10:38:57.012Z,560.5
2018-12-12T10:39:59.453Z,560.3
2018-12-12T10:41:01.883Z,560.2
2018-12-12T10:42:04.056Z,560.6
2018-12-12T10:43:06.218Z,560.6
2018-12-12T10:44:08.093Z,560.6
2018-12-12T10:45:10.254Z,560.8
2018-12-12T10:46:12.709Z,560.7
2018-12-12T10:47:14.591Z,560.7
2018-12-12T10:48:16.734Z,561
2018-12-12T10:49:19.149Z,560.8
2018-12-12T10:50:21.575Z,561
2018-12-12T10:51:24.006Z,561
2018-12-12T10:52:26.172Z,561.1
2018-12-12T10:53:28.334Z,561.5
2018-12-12T10:54:30.758Z,561.2
2018-12-12T10:55:33.182Z,561.5
2018-12-12T10:56:35.610Z,561.3
2018-12-12T10:57:37.786Z,561
2018-12-12T10:58:40.041Z,561.3
2018-12-12T10:59:42.198Z,561.4
2018-12-12T11:00:44.639Z,561.3
2018-12-12T11:01:46.801Z,561.1
2018-12-12T11:02:49.214Z,561.3
2018-12-12T11:03:51.644Z,560.9
2018-12-12T11:04:54.074Z,561.3
2018-12-12T11:05:56.494Z,561.4
2018-12-12T11:06:58.925Z,561.4
2018-12-12T11:08:01.353Z,561.1
2018-12-12T11:09:03.784Z,561.2
2018-12-12T11:10:05.936Z,561.6
2018-12-12T11:11:08.360Z,561.3
2018-12-12T11:12:10.823Z,561.9
2018-12-12T11:13:13.250Z,561.8
2018-12-12T11:14:15.395Z,561.8
2018-12-12T11:15:17.882Z,561.9
2018-12-12T11:16:20.317Z,561.8
2018-12-12T11:17:22.194Z,561.5
2018-12-12T11:18:24.619Z,561.9
2018-12-12T11:19:27.042Z,561.9
2018-12-12T11:20:29.487Z,562
2018-12-12T11:21:31.930Z,562.4
2018-12-12T11:22:33.834Z,562
2018-12-12T11:23:35.999Z,562.1
2018-12-12T11:24:38.186Z,562.1
2018-12-12T11:25:40.610Z,562.4
2018-12-12T11:26:43.038Z,562
2018-12-12T11:27:45.459Z,562.2
2018-12-12T11:28:47.885Z,562.3
2018-12-12T11:29:50.327Z,562.2
2018-12-12T11:30:52.461Z,562.2
2018-12-12T11:31:54.889Z,562.6
2018-12-12T11:32:57.330Z,562.1
2018-12-12T11:33:59.758Z,561.8
2018-12-12T11:35:02.194Z,561.9
2018-12-12T11:36:04.631Z,561.8
2018-12-12T11:37:06.511Z,562
2018-12-12T11:38:08.670Z,562.4
2018-12-12T11:39:10.838Z,562.3
2018-12-12T11:40:13.271Z,562.7
2018-12-12T11:41:15.699Z,562.3
2018-12-12T11:42:17.862Z,562.6
2018-12-12T11:43:19.736Z,562.5
2018-12-12T11:44:21.916Z,562.9
2018-12-12T11:45:24.345Z,562.6
2018-12-12T11:46:26.769Z,562.7
2018-12-12T11:47:29.193Z,562.9
2018-12-12T11:48:31.624Z,563.3
2018-12-12T11:49:33.775Z,563
2018-12-12T11:50:35.924Z,562.9
2018-12-12T11:51:38.349Z,563.2
2018-12-12T11:52:40.504Z,563.1
2018-12-12T11:53:42.952Z,563.4
2018-12-12T11:54:45.382Z,563.2
2018-12-12T11:55:47.544Z,563.5
2018-12-12T11:56:49.978Z,563
2018-12-12T11:57:52.143Z,563.6
2018-12-12T11:58:54.605Z,563.7
2018-12-12T11:59:57.041Z,563.6
2018-12-12T12:00:59.487Z,564
2018-12-12T12:02:01.663Z,563.9
2018-12-12T12:03:04.089Z,563.7
2018-12-12T12:04:06.223Z,563.5
2018-12-12T12:05:08.657Z,563.9
2018-12-12T12:06:10.823Z,564.1
2018-12-12T12:07:13.266Z,564.1
2018-12-12T12:08:15.440Z,564.1
2018-12-12T12:09:17.640Z,564.7
2018-12-12T12:10:20.145Z,564.1
2018-12-12T12:11:22.556Z,564.6
2018-12-12T12:12:24.983Z,564.4
2018-12-12T12:13:26.838Z,564.5
2018-12-12T12:14:29.263Z,564.7
2018-12-12T12:15:31.686Z,564.3
2018-12-12T12:16:33.838Z,564.8
2018-12-12T12:17:36.257Z,564.6
2018-12-12T12:18:38.694Z,564.6
2018-12-12T12:19:41.133Z,564.9
2018-12-12T12:20:42.996Z,564.8
2018-12-12T12:21:45.153Z,565
2018-12-12T12:22:47.578Z,564.7
2018-12-12T12:23:50.022Z,564.7
2018-12-12T12:24:52.464Z,564.8
2018-12-12T12:25:54.902Z,564.9
2018-12-12T12:26:57.333Z,565
2018-12-12T12:27:59.490Z,564.6
2018-12-12T12:29:01.346Z,565
2018-12-12T12:30:03.767Z,565
2018-12-12T12:31:06.197Z,565.3
2018-12-12T12:32:08.618Z,565
2018-12-12T12:33:11.048Z,565.1
2018-12-12T12:34:13.196Z,565.3
2018-12-12T12:35:15.633Z,565.5
2018-12-12T12:36:17.802Z,565.2
2018-12-12T12:37:19.385Z,565.4
2018-12-12T12:38:21.826Z,565.6
2018-12-12T12:39:24.252Z,565.6
2018-12-12T12:40:26.694Z,565.3
2018-12-12T12:41:29.134Z,565.7
2018-12-12T12:42:31.326Z,565.7
2018-12-12T12:43:33.496Z,565.6
2018-12-12T12:44:35.364Z,565.7
2018-12-12T12:45:37.521Z,566
2018-12-12T12:46:39.960Z,565.7
2018-12-12T12:47:42.405Z,566.1
2018-12-12T12:48:44.819Z,565.9
2018-12-12T12:49:47.246Z,566.1
2018-12-12T12:50:49.432Z,566.1
2018-12-12T12:51:51.861Z,566.1
2018-12-12T12:52:54.296Z,566.1
2018-12-12T12:53:56.203Z,566.2
2018-12-12T12:54:58.632Z,566.4
2018-12-12T12:56:00.790Z,566.1
2018-12-12T12:57:03.213Z,566.3
2018-12-12T12:58:05.359Z,567
2018-12-12T12:59:07.788Z,566.6
2018-12-12T13:00:10.268Z,566.1
2018-12-12T13:01:12.146Z,566.1
2018-12-12T13:02:14.561Z,566.3
2018-12-12T13:03:16.988Z,566.5
2018-12-12T13:04:19.412Z,566.6
2018-12-12T13:05:21.945Z,566.7
2018-12-12T13:06:24.467Z,566.5
2018-12-12T13:07:26.623Z,566.7
2018-12-12T13:08:29.105Z,566.8
2018-12-12T13:09:31.561Z,566.9
2018-12-12T13:10:33.995Z,566.8
2018-12-12T13:11:36.422Z,566.8
2018-12-12T13:12:38.850Z,566.8
2018-12-12T13:13:41.268Z,567
2018-12-12T13:14:43.423Z,566.9
2018-12-12T13:15:45.559Z,566.7
2018-12-12T13:16:47.977Z,566.7
2018-12-12T13:17:50.141Z,566.9
2018-12-12T13:18:52.574Z,567.4
2018-12-12T13:19:54.986Z,567.4
2018-12-12T13:20:57.420Z,567.8
2018-12-12T13:21:59.850Z,567.6
2018-12-12T13:23:02.271Z,567.3
2018-12-12T13:24:04.412Z,567.3
2018-12-12T13:25:06.834Z,568
2018-12-12T13:26:09.261Z,567.9
2018-12-12T13:27:11.701Z,567.7
2018-12-12T13:28:13.890Z,568
2018-12-12T13:29:16.045Z,568.1
2018-12-12T13:30:17.914Z,568
2018-12-12T13:31:20.342Z,568.1